createdAt,value
2023-05-21T05:50:11.889Z,98505.03
2023-05-21T05:51:15.396Z,98514.22
2023-05-21T05:52:18.248Z,98506.00
2023-05-21T05:53:20.310Z,98507.13
2023-05-21T05:54:23.219Z,98513.56
2023-05-21T05:55:26.816Z,98511.94
2023-05-21T05:56:30.514Z,98503.66
2023-05-21T05:57:32.353Z,98505.59
2023-05-21T05:58:39.359Z,98505.31
2023-05-21T05:59:44.759Z,98504.88
2023-05-21T06:00:48.132Z,98504.28
2023-05-21T06:01:50.268Z,98498.56
2023-05-21T06:02:53.242Z,98499.88
2023-05-21T06:03:55.467Z,98498.78
2023-05-21T06:04:59.312Z,98507.72
2023-05-21T06:06:02.705Z,98503.78
2023-05-21T06:07:07.322Z,98506.03
2023-05-21T06:08:10.417Z,98499.06
2023-05-21T06:09:13.164Z,98499.63
2023-05-21T06:10:15.084Z,98498.25
2023-05-21T06:11:19.014Z,98500.47
2023-05-21T06:12:21.199Z,98502.63
2023-05-21T06:13:23.936Z,98502.50
2023-05-21T06:14:25.853Z,98504.75
2023-05-21T06:15:28.791Z,98500.78
2023-05-21T06:16:31.626Z,98503.72
2023-05-21T06:17:34.698Z,98489.44
2023-05-21T06:18:37.884Z,98504.13
2023-05-21T06:19:40.754Z,98496.66
2023-05-21T06:20:42.688Z,98496.91
2023-05-21T06:21:46.986Z,98497.09
2023-05-21T06:22:48.859Z,98499.69
2023-05-21T06:23:51.955Z,98503.41
2023-05-21T06:24:53.863Z,98501.41
2023-05-21T06:25:56.658Z,98499.59
2023-05-21T06:26:59.819Z,98496.31
2023-05-21T06:28:02.880Z,98497.38
2023-05-21T06:29:06.011Z,98495.91
2023-05-21T06:30:09.552Z,98495.41
2023-05-21T06:31:11.960Z,98494.56
2023-05-21T06:32:15.280Z,98487.97
2023-05-21T06:33:17.525Z,98490.94
2023-05-21T06:34:20.535Z,98496.13
2023-05-21T06:35:22.520Z,98497.09
2023-05-21T06:36:30.324Z,98498.03
2023-05-21T06:37:34.964Z,98486.78
2023-05-21T06:38:37.275Z,98496.34
2023-05-21T06:39:40.057Z,98492.59
2023-05-21T06:40:44.573Z,98489.69
2023-05-21T06:41:49.967Z,98489.50
2023-05-21T06:43:12.654Z,98492.13
2023-05-21T06:44:15.641Z,98499.38
2023-05-21T06:45:38.597Z,98497.63
2023-05-21T06:46:58.074Z,98494.56
2023-05-21T06:48:00.919Z,98497.69
2023-05-21T06:49:02.817Z,98498.03
2023-05-21T06:50:06.195Z,98502.75
2023-05-21T06:51:08.202Z,98500.47
2023-05-21T06:52:11.210Z,98501.34
2023-05-21T06:53:16.550Z,98501.44
2023-05-21T06:54:20.781Z,98500.03
2023-05-21T06:55:22.919Z,98504.72
2023-05-21T06:56:38.199Z,98503.13
2023-05-21T06:57:40.048Z,98497.88
2023-05-21T06:58:46.249Z,98499.75
2023-05-21T06:59:48.047Z,98505.97
2023-05-21T07:00:51.093Z,98502.19
2023-05-21T07:01:53.158Z,98504.78
2023-05-21T07:02:56.279Z,98499.00
2023-05-21T07:03:58.511Z,98496.91
2023-05-21T07:05:01.811Z,98502.56
2023-05-21T07:06:03.966Z,98501.84
2023-05-21T07:07:06.987Z,98500.72
2023-05-21T07:08:10.617Z,98504.53
2023-05-21T07:09:15.944Z,98503.91
2023-05-21T07:10:17.947Z,98504.16
2023-05-21T07:11:21.262Z,98505.34
2023-05-21T07:12:23.967Z,98500.31
2023-05-21T07:13:27.144Z,98500.56
2023-05-21T07:14:29.988Z,98498.13
2023-05-21T07:15:31.848Z,98497.91
2023-05-21T07:16:34.804Z,98504.47
2023-05-21T07:17:38.548Z,98500.19
2023-05-21T07:18:40.506Z,98496.53
2023-05-21T07:19:43.419Z,98497.69
2023-05-21T07:20:46.640Z,98494.91
2023-05-21T07:21:51.559Z,98507.13
2023-05-21T07:22:53.345Z,98501.78
2023-05-21T07:23:56.592Z,98501.69
2023-05-21T07:25:00.282Z,98506.06
2023-05-21T07:26:03.164Z,98500.69
2023-05-21T07:27:17.713Z,98492.72
2023-05-21T07:28:28.037Z,98499.78
2023-05-21T07:29:29.922Z,98491.06
2023-05-21T07:30:32.808Z,98501.50
2023-05-21T07:31:37.704Z,98497.06
2023-05-21T07:32:41.306Z,98500.13
2023-05-21T07:33:43.234Z,98493.31
2023-05-21T07:34:47.957Z,98490.22
2023-05-21T07:35:49.905Z,98487.94
2023-05-21T07:36:52.632Z,98486.41
2023-05-21T07:37:54.576Z,98491.00
2023-05-21T07:38:57.671Z,98486.09
2023-05-21T07:40:00.772Z,98497.38
2023-05-21T07:41:04.099Z,98497.56
2023-05-21T07:42:06.192Z,98492.81
2023-05-21T07:43:08.901Z,98488.72
2023-05-21T07:44:15.279Z,98491.25
2023-05-21T07:45:19.494Z,98487.78
2023-05-21T07:46:21.489Z,98489.00
2023-05-21T07:47:28.671Z,98485.72
2023-05-21T07:48:33.524Z,98489.25
2023-05-21T07:49:37.568Z,98482.53
2023-05-21T07:50:40.333Z,98480.34
2023-05-21T07:51:42.635Z,98469.41
2023-05-21T07:52:45.728Z,98479.19
2023-05-21T07:53:47.730Z,98478.44
2023-05-21T07:54:52.808Z,98479.13
2023-05-21T07:55:57.914Z,98475.63
2023-05-21T07:57:03.942Z,98474.78
2023-05-21T07:58:23.363Z,98473.03
2023-05-21T07:59:25.430Z,98472.19
2023-05-21T08:00:28.372Z,98473.88
2023-05-21T08:01:34.109Z,98474.63
2023-05-21T08:02:36.352Z,98478.47
2023-05-21T08:03:39.405Z,98478.81
2023-05-21T08:04:42.474Z,98476.13
2023-05-21T08:05:48.925Z,98476.28
2023-05-21T08:06:52.009Z,98476.38
2023-05-21T08:07:54.830Z,98469.34
2023-05-21T08:08:57.471Z,98468.88
2023-05-21T08:10:02.552Z,98468.38
2023-05-21T08:11:06.414Z,98462.53
2023-05-21T08:12:10.593Z,98471.56
2023-05-21T08:13:13.006Z,98464.50
2023-05-21T08:14:15.799Z,98461.41
2023-05-21T08:15:17.694Z,98472.19
2023-05-21T08:16:23.355Z,98473.31
2023-05-21T08:17:29.464Z,98469.03
2023-05-21T08:18:31.521Z,98463.91
2023-05-21T08:19:34.440Z,98479.00
2023-05-21T08:20:36.689Z,98461.47
2023-05-21T08:21:39.511Z,98468.44
2023-05-21T08:22:41.545Z,98464.00
2023-05-21T08:23:44.582Z,98465.56
2023-05-21T08:24:46.662Z,98465.81
2023-05-21T08:25:49.426Z,98462.34
2023-05-21T08:26:52.625Z,98459.69
2023-05-21T08:27:56.313Z,98463.22
2023-05-21T08:28:59.268Z,98465.91
2023-05-21T08:30:01.135Z,98467.72
2023-05-21T08:31:03.922Z,98467.97
2023-05-21T08:32:11.588Z,98469.19
2023-05-21T08:33:15.188Z,98468.72
2023-05-21T08:34:18.642Z,98470.00
2023-05-21T08:35:30.469Z,98470.25
2023-05-21T08:36:39.264Z,98467.22
2023-05-21T08:37:51.350Z,98459.75
2023-05-21T08:39:03.425Z,98461.72
2023-05-21T08:40:12.569Z,98465.50
2023-05-21T08:41:22.216Z,98467.25
2023-05-21T08:42:37.827Z,98461.34
2023-05-21T08:43:41.368Z,98459.78
2023-05-21T08:44:48.799Z,98461.75
2023-05-21T08:45:54.805Z,98467.78
2023-05-21T08:47:02.597Z,98461.56
2023-05-21T08:48:05.696Z,98470.22
2023-05-21T08:49:13.279Z,98458.59
2023-05-21T08:50:18.284Z,98462.78
2023-05-21T08:51:25.095Z,98474.59
2023-05-21T08:52:28.182Z,98463.34
2023-05-21T08:53:31.326Z,98460.75
2023-05-21T08:54:36.916Z,98461.66
2023-05-21T08:55:42.689Z,98458.00
2023-05-21T08:56:47.067Z,98456.31
2023-05-21T08:57:55.396Z,98456.50
2023-05-21T08:58:59.701Z,98461.16
2023-05-21T09:00:08.207Z,98453.63
2023-05-21T09:01:12.311Z,98456.41
2023-05-21T09:02:18.332Z,98454.84
2023-05-21T09:03:22.579Z,98461.94
2023-05-21T09:04:27.620Z,98456.03
2023-05-21T09:05:32.009Z,98458.94
2023-05-21T09:06:34.307Z,98455.53
2023-05-21T09:07:43.876Z,98457.59
2023-05-21T09:09:07.626Z,98456.19
2023-05-21T09:10:19.379Z,98446.59
2023-05-21T09:11:21.675Z,98457.78
2023-05-21T09:12:30.532Z,98460.50
2023-05-21T09:13:39.251Z,98446.00
2023-05-21T09:14:49.104Z,98456.59
2023-05-21T09:15:53.769Z,98463.63
2023-05-21T09:16:58.081Z,98453.44
2023-05-21T09:18:00.257Z,98451.91
2023-05-21T09:19:14.014Z,98454.84
2023-05-21T09:20:16.745Z,98452.34
2023-05-21T09:21:27.225Z,98447.94
2023-05-21T09:22:33.153Z,98449.09
2023-05-21T09:23:38.732Z,98455.34
2023-05-21T09:24:41.990Z,98457.84
2023-05-21T09:25:47.349Z,98451.75
2023-05-21T09:26:58.379Z,98454.31
2023-05-21T09:28:01.671Z,98456.88
2023-05-21T09:29:05.803Z,98448.22
2023-05-21T09:30:11.269Z,98447.59
2023-05-21T09:31:14.161Z,98442.66
2023-05-21T09:32:17.791Z,98448.31
2023-05-21T09:33:26.685Z,98442.41
2023-05-21T09:34:28.974Z,98443.44
2023-05-21T09:35:31.978Z,98448.88
2023-05-21T09:36:38.421Z,98440.88
2023-05-21T09:37:43.993Z,98442.69
2023-05-21T09:38:46.372Z,98444.16
2023-05-21T09:39:49.582Z,98448.31
2023-05-21T09:40:51.663Z,98443.97
2023-05-21T09:41:54.490Z,98448.38
2023-05-21T09:42:56.318Z,98447.53
2023-05-21T09:44:00.823Z,98448.34
2023-05-21T09:45:05.004Z,98450.78
2023-05-21T09:46:08.404Z,98449.19
2023-05-21T09:47:11.059Z,98451.16
2023-05-21T09:48:14.665Z,98439.22
2023-05-21T09:49:26.169Z,98434.16
2023-05-21T09:50:29.587Z,98438.00
2023-05-21T09:51:32.420Z,98438.28
2023-05-21T09:52:38.660Z,98444.75
2023-05-21T09:53:48.671Z,98443.91
2023-05-21T09:54:53.286Z,98446.94
2023-05-21T09:55:58.001Z,98444.41
2023-05-21T09:57:02.489Z,98438.97
2023-05-21T09:58:05.905Z,98440.59
2023-05-21T09:59:07.762Z,98447.53
2023-05-21T10:00:20.123Z,98444.91
2023-05-21T10:01:22.468Z,98442.97
2023-05-21T10:02:26.831Z,98454.38
2023-05-21T10:03:31.150Z,98454.09
2023-05-21T10:04:34.374Z,98436.72
2023-05-21T10:05:37.393Z,98441.31
2023-05-21T10:06:44.003Z,98442.34
2023-05-21T10:07:50.268Z,98430.97
2023-05-21T10:08:55.886Z,98440.75
2023-05-21T10:09:57.896Z,98439.66
2023-05-21T10:11:02.087Z,98432.47
2023-05-21T10:12:04.591Z,98437.50
2023-05-21T10:13:09.544Z,98445.41
2023-05-21T10:14:16.373Z,98435.63
2023-05-21T10:15:25.124Z,98436.47
2023-05-21T10:16:27.957Z,98441.00
2023-05-21T10:17:30.852Z,98439.41
2023-05-21T10:18:34.714Z,98439.03
2023-05-21T10:19:38.647Z,98437.34
2023-05-21T10:20:42.090Z,98441.88
2023-05-21T10:21:45.812Z,98431.66
2023-05-21T10:22:49.298Z,98429.03
2023-05-21T10:23:51.360Z,98431.69
2023-05-21T10:24:55.034Z,98432.56
2023-05-21T10:25:59.500Z,98422.31
2023-05-21T10:27:02.431Z,98428.81
2023-05-21T10:28:06.872Z,98430.81
2023-05-21T10:29:10.019Z,98426.47
2023-05-21T10:30:13.120Z,98434.53
2023-05-21T10:31:16.635Z,98415.41
2023-05-21T10:32:22.502Z,98428.72
2023-05-21T10:33:26.934Z,98418.44
2023-05-21T10:34:32.075Z,98415.94
2023-05-21T10:35:34.432Z,98407.31
2023-05-21T10:36:38.888Z,98409.97
2023-05-21T10:37:43.426Z,98423.91
2023-05-21T10:38:47.737Z,98423.81
2023-05-21T10:39:52.761Z,98421.13
2023-05-21T10:40:56.735Z,98414.94
2023-05-21T10:42:11.008Z,98413.28
2023-05-21T10:43:31.594Z,98414.22
2023-05-21T10:44:45.250Z,98417.41
2023-05-21T10:46:07.005Z,98423.47
2023-05-21T10:47:29.036Z,98425.31
2023-05-21T10:48:50.855Z,98417.63
2023-05-21T10:50:09.308Z,98417.06
2023-05-21T10:51:21.091Z,98401.63
2023-05-21T10:52:40.232Z,98407.94
2023-05-21T10:54:05.137Z,98410.53
2023-05-21T10:55:17.885Z,98418.34
2023-05-21T10:56:25.368Z,98408.69
2023-05-21T10:57:46.457Z,98412.13
2023-05-21T10:59:05.596Z,98402.50
2023-05-21T11:00:09.564Z,98403.34
2023-05-21T11:01:13.675Z,98410.44
2023-05-21T11:02:19.565Z,98419.09
2023-05-21T11:03:23.598Z,98421.59
2023-05-21T11:04:27.100Z,98417.78
2023-05-21T11:05:41.901Z,98413.28
2023-05-21T11:06:48.494Z,98407.16
2023-05-21T11:07:56.271Z,98408.16
2023-05-21T11:09:01.957Z,98406.59
2023-05-21T11:10:28.459Z,98404.88
2023-05-21T11:11:42.880Z,98405.69
2023-05-21T11:13:07.925Z,98404.03
2023-05-21T11:14:26.310Z,98404.25
2023-05-21T11:15:29.056Z,98414.97
2023-05-21T11:16:31.808Z,98401.94
2023-05-21T11:17:40.000Z,98397.69
2023-05-21T11:18:58.491Z,98405.66
2023-05-21T11:20:07.238Z,98399.50
2023-05-21T11:21:10.378Z,98401.25
2023-05-21T11:22:23.174Z,98404.78
2023-05-21T11:23:48.713Z,98402.28
2023-05-21T11:24:52.338Z,98406.75
2023-05-21T11:26:01.300Z,98393.66
2023-05-21T11:27:05.613Z,98396.34
2023-05-21T11:28:09.534Z,98392.88
2023-05-21T11:29:11.787Z,98393.72
2023-05-21T11:30:17.795Z,98396.41
2023-05-21T11:31:23.858Z,98396.50
2023-05-21T11:32:26.700Z,98388.69
2023-05-21T11:33:29.803Z,98396.69
2023-05-21T11:34:39.353Z,98394.06
2023-05-21T11:35:59.256Z,98401.94
2023-05-21T11:37:25.096Z,98394.03
2023-05-21T11:38:29.396Z,98387.88
2023-05-21T11:39:40.260Z,98392.25
2023-05-21T11:40:54.616Z,98394.78
2023-05-21T11:41:59.107Z,98396.50
2023-05-21T11:43:03.344Z,98400.00
2023-05-21T11:44:08.651Z,98389.44
2023-05-21T11:45:11.874Z,98391.22
2023-05-21T11:46:14.390Z,98388.56
2023-05-21T11:47:19.498Z,98394.66
2023-05-21T11:48:27.247Z,98386.75
2023-05-21T11:49:31.527Z,98396.38
2023-05-21T11:50:35.296Z,98395.53
2023-05-21T11:51:37.314Z,98390.28
2023-05-21T11:52:41.821Z,98390.31
2023-05-21T11:53:44.484Z,98390.34
2023-05-21T11:54:50.538Z,98395.59
2023-05-21T11:55:57.595Z,98397.34
2023-05-21T11:57:00.890Z,98395.53
2023-05-21T11:58:04.173Z,98396.41
2023-05-21T11:59:14.259Z,98404.31
2023-05-21T12:00:18.089Z,98406.78
2023-05-21T12:01:22.825Z,98409.34
2023-05-21T12:02:27.236Z,98399.63
2023-05-21T12:03:30.417Z,98396.00
2023-05-21T12:04:36.495Z,98395.84
2023-05-21T12:05:46.136Z,98389.69
2023-05-21T12:06:48.218Z,98400.16
2023-05-21T12:07:51.116Z,98400.13
2023-05-21T12:09:00.624Z,98398.25
2023-05-21T12:10:03.690Z,98397.25
2023-05-21T12:11:05.645Z,98400.78
2023-05-21T12:12:09.993Z,98392.91
2023-05-21T12:13:11.809Z,98393.84
2023-05-21T12:14:15.140Z,98405.28
2023-05-21T12:15:18.200Z,98400.09
2023-05-21T12:16:21.320Z,98403.53
2023-05-21T12:17:24.382Z,98398.19
2023-05-21T12:18:27.661Z,98401.69
2023-05-21T12:19:34.282Z,98401.72
2023-05-21T12:20:37.423Z,98393.91
2023-05-21T12:21:39.502Z,98405.41
2023-05-21T12:22:44.110Z,98404.53
2023-05-21T12:23:46.188Z,98398.34
2023-05-21T12:24:49.373Z,98405.22
2023-05-21T12:25:51.414Z,98396.38
2023-05-21T12:26:55.036Z,98399.97
2023-05-21T12:27:58.914Z,98401.78
2023-05-21T12:29:02.098Z,98398.34
2023-05-21T12:30:05.384Z,98401.13
2023-05-21T12:31:07.170Z,98400.31
2023-05-21T12:32:12.559Z,98396.84
2023-05-21T12:33:17.890Z,98403.88
2023-05-21T12:34:43.344Z,98402.16
2023-05-21T12:35:48.697Z,98395.22
2023-05-21T12:36:51.646Z,98408.41
2023-05-21T12:37:54.378Z,98416.22
2023-05-21T12:38:57.590Z,98403.94
2023-05-21T12:40:01.920Z,98399.41
2023-05-21T12:41:04.938Z,98405.41
2023-05-21T12:42:08.405Z,98404.56
2023-05-21T12:43:10.226Z,98401.00
2023-05-21T12:44:12.974Z,98401.94
2023-05-21T12:45:15.004Z,98398.41
2023-05-21T12:46:18.854Z,98400.16
2023-05-21T12:47:24.035Z,98403.84
2023-05-21T12:48:27.077Z,98405.69
2023-05-21T12:49:36.574Z,98393.47
2023-05-21T12:50:42.144Z,98395.34
2023-05-21T12:51:45.476Z,98400.72
2023-05-21T12:52:48.482Z,98397.25
2023-05-21T12:53:51.260Z,98404.31
2023-05-21T12:54:54.364Z,98399.84
2023-05-21T12:55:57.087Z,98398.03
2023-05-21T12:57:06.204Z,98398.88
2023-05-21T12:58:09.439Z,98398.91
2023-05-21T12:59:14.424Z,98396.38
2023-05-21T13:00:24.860Z,98392.06
2023-05-21T13:01:26.679Z,98397.34
2023-05-21T13:02:32.399Z,98392.06
2023-05-21T13:03:34.460Z,98390.34
2023-05-21T13:04:37.384Z,98399.09
2023-05-21T13:05:42.424Z,98392.13
2023-05-21T13:06:44.448Z,98391.25
2023-05-21T13:07:48.178Z,98393.94
2023-05-21T13:08:50.138Z,98394.81
2023-05-21T13:09:53.455Z,98387.75
2023-05-21T13:10:55.606Z,98393.78
2023-05-21T13:11:58.328Z,98394.66
2023-05-21T13:13:01.695Z,98392.00
2023-05-21T13:14:03.554Z,98394.66
2023-05-21T13:15:07.972Z,98393.81
2023-05-21T13:16:10.760Z,98392.09
2023-05-21T13:17:12.743Z,98391.19
2023-05-21T13:18:16.208Z,98391.22
2023-05-21T13:19:18.215Z,98387.72
2023-05-21T13:20:21.806Z,98392.13
2023-05-21T13:21:25.338Z,98383.34
2023-05-21T13:22:28.134Z,98384.25
2023-05-21T13:23:30.990Z,98380.75
2023-05-21T13:24:32.909Z,98382.50
2023-05-21T13:25:35.629Z,98372.91
2023-05-21T13:26:37.608Z,98379.06
2023-05-21T13:27:40.572Z,98379.09
2023-05-21T13:28:43.423Z,98381.69
2023-05-21T13:29:45.497Z,98380.84
2023-05-21T13:30:48.382Z,98379.91
2023-05-21T13:31:50.216Z,98375.56
2023-05-21T13:32:53.286Z,98386.13
2023-05-21T13:33:55.342Z,98377.34
2023-05-21T13:34:58.578Z,98372.06
2023-05-21T13:36:01.743Z,98371.19
2023-05-21T13:37:05.043Z,98372.94
2023-05-21T13:38:10.131Z,98373.81
2023-05-21T13:39:12.401Z,98372.06
2023-05-21T13:40:16.724Z,98371.22
2023-05-21T13:41:19.610Z,98372.94
2023-05-21T13:42:22.541Z,98365.94
2023-05-21T13:43:24.509Z,98369.47
2023-05-21T13:44:27.254Z,98373.88
2023-05-21T13:45:30.080Z,98372.09
2023-05-21T13:46:32.006Z,98378.25
2023-05-21T13:47:37.463Z,98371.25
2023-05-21T13:48:43.196Z,98371.25
2023-05-21T13:49:45.040Z,98365.97
2023-05-21T13:50:47.880Z,98374.75
2023-05-21T13:51:49.757Z,98385.31
2023-05-21T13:52:54.137Z,98379.13
2023-05-21T13:53:56.837Z,98382.66
2023-05-21T13:54:59.856Z,98376.44
2023-05-21T13:56:01.786Z,98365.00
2023-05-21T13:57:05.024Z,98376.44
2023-05-21T13:58:07.890Z,98375.59
2023-05-21T13:59:09.920Z,98372.91
2023-05-21T14:00:16.233Z,98372.94
2023-05-21T14:01:19.207Z,98374.69
2023-05-21T14:02:22.238Z,98369.44
2023-05-21T14:03:25.152Z,98376.50
2023-05-21T14:04:27.009Z,98374.72
2023-05-21T14:05:29.750Z,98372.06
2023-05-21T14:06:33.096Z,98376.47
2023-05-21T14:07:35.018Z,98372.97
2023-05-21T14:08:39.340Z,98369.44
2023-05-21T14:09:42.267Z,98372.91
2023-05-21T14:10:45.033Z,98371.19
2023-05-21T14:11:47.761Z,98376.44
2023-05-21T14:12:49.690Z,98369.44
2023-05-21T14:13:52.561Z,98372.97
2023-05-21T14:14:54.420Z,98366.81
2023-05-21T14:15:57.123Z,98371.19
2023-05-21T14:16:59.192Z,98376.47
2023-05-21T14:18:02.256Z,98380.00
2023-05-21T14:19:04.162Z,98377.34
2023-05-21T14:20:08.043Z,98377.34
2023-05-21T14:21:10.924Z,98378.25
2023-05-21T14:22:13.648Z,98372.94
2023-05-21T14:23:16.620Z,98369.31
2023-05-21T14:24:20.185Z,98370.13
2023-05-21T14:25:23.060Z,98367.50
2023-05-21T14:26:25.083Z,98372.81
2023-05-21T14:27:27.812Z,98367.50
2023-05-21T14:28:29.736Z,98372.78
2023-05-21T14:29:33.312Z,98369.25
2023-05-21T14:30:35.310Z,98364.88
2023-05-21T14:31:39.201Z,98376.31
2023-05-21T14:32:42.025Z,98368.41
2023-05-21T14:33:43.916Z,98372.69
2023-05-21T14:34:48.785Z,98374.44
2023-05-21T14:35:51.559Z,98363.94
2023-05-21T14:36:53.404Z,98369.22
2023-05-21T14:37:56.275Z,98364.00
2023-05-21T14:38:58.164Z,98364.91
2023-05-21T14:40:02.395Z,98368.47
2023-05-21T14:41:06.335Z,98361.44
2023-05-21T14:42:08.148Z,98357.91
2023-05-21T14:43:11.022Z,98354.41
2023-05-21T14:44:12.955Z,98357.00
2023-05-21T14:45:19.220Z,98358.78
2023-05-21T14:46:21.792Z,98356.16
2023-05-21T14:47:24.688Z,98350.03
2023-05-21T14:48:27.385Z,98351.84
2023-05-21T14:49:29.279Z,98356.25
2023-05-21T14:50:32.046Z,98359.75
2023-05-21T14:51:33.872Z,98351.88
2023-05-21T14:52:36.725Z,98349.22
2023-05-21T14:53:39.827Z,98351.84
2023-05-21T14:54:41.752Z,98353.63
2023-05-21T14:55:46.707Z,98350.09
2023-05-21T14:56:48.551Z,98350.09
2023-05-21T14:57:51.420Z,98351.88
2023-05-21T14:58:53.314Z,98340.44
2023-05-21T14:59:56.248Z,98349.22
2023-05-21T15:00:59.016Z,98339.53
2023-05-21T15:02:01.188Z,98342.19
2023-05-21T15:03:04.994Z,98343.97
2023-05-21T15:04:07.829Z,98345.72
2023-05-21T15:05:11.080Z,98337.81
2023-05-21T15:06:13.870Z,98342.22
2023-05-21T15:07:15.714Z,98342.19
2023-05-21T15:08:18.740Z,98334.28
2023-05-21T15:09:20.745Z,98342.19
2023-05-21T15:10:24.391Z,98332.53
2023-05-21T15:11:28.014Z,98336.03
2023-05-21T15:12:30.877Z,98339.53
2023-05-21T15:13:33.630Z,98341.28
2023-05-21T15:14:36.574Z,98333.34
2023-05-21T15:15:38.706Z,98341.28
2023-05-21T15:16:41.730Z,98337.75
2023-05-21T15:17:44.112Z,98336.91
2023-05-21T15:18:47.046Z,98336.00
2023-05-21T15:19:49.753Z,98336.00
2023-05-21T15:20:51.626Z,98336.84
2023-05-21T15:21:54.447Z,98336.88
2023-05-21T15:23:15.428Z,98338.63
2023-05-21T15:24:18.965Z,98335.94
2023-05-21T15:25:21.976Z,98332.44
2023-05-21T15:26:25.342Z,98333.28
2023-05-21T15:27:29.320Z,98332.41
2023-05-21T15:28:31.280Z,98332.47
2023-05-21T15:29:34.007Z,98336.03
2023-05-21T15:30:36.099Z,98337.81
2023-05-21T15:31:39.436Z,98334.28
2023-05-21T15:32:42.585Z,98329.88
2023-05-21T15:33:44.554Z,98335.16
2023-05-21T15:34:47.705Z,98328.13
2023-05-21T15:35:49.749Z,98336.03
2023-05-21T15:36:52.624Z,98337.81
2023-05-21T15:37:54.454Z,98328.97
2023-05-21T15:38:57.282Z,98325.41
2023-05-21T15:40:02.135Z,98326.28
2023-05-21T15:41:06.410Z,98321.88
2023-05-21T15:42:09.097Z,98326.22
2023-05-21T15:43:13.150Z,98321.81
2023-05-21T15:44:15.323Z,98328.84
2023-05-21T15:45:18.330Z,98329.69
2023-05-21T15:46:20.284Z,98321.69
2023-05-21T15:47:23.250Z,98319.91
2023-05-21T15:48:26.277Z,98317.22
2023-05-21T15:49:28.085Z,98313.66
2023-05-21T15:50:31.013Z,98318.03
2023-05-21T15:51:32.928Z,98326.81
2023-05-21T15:52:35.839Z,98322.38
2023-05-21T15:53:37.645Z,98318.03
2023-05-21T15:54:40.814Z,98323.34
2023-05-21T15:55:44.682Z,98324.19
2023-05-21T15:56:46.690Z,98320.69
2023-05-21T15:57:49.483Z,98325.94
2023-05-21T15:58:52.703Z,98326.84
2023-05-21T15:59:56.695Z,98326.81
2023-05-21T16:00:59.057Z,98330.38
2023-05-21T16:02:02.931Z,98325.09
2023-05-21T16:03:05.662Z,98325.09
2023-05-21T16:04:09.481Z,98327.75
2023-05-21T16:05:12.434Z,98325.03
2023-05-21T16:06:16.185Z,98326.75
2023-05-21T16:07:20.022Z,98324.06
2023-05-21T16:08:22.105Z,98324.94
2023-05-21T16:09:25.249Z,98330.34
2023-05-21T16:10:27.546Z,98324.19
2023-05-21T16:11:31.217Z,98333.91
2023-05-21T16:12:33.739Z,98328.66
2023-05-21T16:13:37.372Z,98334.03
2023-05-21T16:14:41.143Z,98334.97
2023-05-21T16:15:45.059Z,98337.59
2023-05-21T16:16:47.319Z,98338.41
2023-05-21T16:17:50.623Z,98337.50
2023-05-21T16:18:53.121Z,98330.41
2023-05-21T16:19:56.013Z,98329.56
2023-05-21T16:20:58.112Z,98326.91
2023-05-21T16:22:01.984Z,98326.00
2023-05-21T16:23:06.274Z,98328.66
2023-05-21T16:24:09.141Z,98339.31
2023-05-21T16:25:10.990Z,98330.53
2023-05-21T16:26:13.893Z,98337.63
2023-05-21T16:27:15.845Z,98328.88
2023-05-21T16:28:18.708Z,98334.19
2023-05-21T16:29:22.179Z,98334.16
2023-05-21T16:30:25.972Z,98333.31
2023-05-21T16:31:28.853Z,98329.78
2023-05-21T16:32:31.215Z,98330.66
2023-05-21T16:33:34.570Z,98328.91
2023-05-21T16:34:37.007Z,98328.91
2023-05-21T16:35:43.352Z,98333.31
2023-05-21T16:36:45.946Z,98335.94
2023-05-21T16:37:49.822Z,98335.94
2023-05-21T16:38:53.148Z,98330.72
2023-05-21T16:39:56.619Z,98343.03
2023-05-21T16:40:59.384Z,98339.50
2023-05-21T16:42:03.035Z,98330.72
2023-05-21T16:43:05.490Z,98330.72
2023-05-21T16:44:09.149Z,98333.41
2023-05-21T16:45:19.795Z,98339.53
2023-05-21T16:46:24.691Z,98334.25
2023-05-21T16:47:27.413Z,98337.78
2023-05-21T16:48:31.300Z,98332.53
2023-05-21T16:49:34.042Z,98332.53
2023-05-21T16:50:37.857Z,98338.66
2023-05-21T16:51:40.434Z,98336.88
2023-05-21T16:52:44.057Z,98334.19
2023-05-21T16:53:46.686Z,98341.22
2023-05-21T16:54:50.614Z,98336.78
2023-05-21T16:55:53.431Z,98335.09
2023-05-21T16:56:57.038Z,98332.44
2023-05-21T16:57:59.806Z,98337.69
2023-05-21T16:59:03.524Z,98335.06
2023-05-21T17:00:08.028Z,98335.03
2023-05-21T17:01:11.937Z,98344.66
2023-05-21T17:02:16.365Z,98334.97
2023-05-21T17:03:20.037Z,98329.63
2023-05-21T17:04:22.744Z,98341.09
2023-05-21T17:05:26.640Z,98334.16
2023-05-21T17:06:29.536Z,98335.94
2023-05-21T17:07:33.420Z,98343.88
2023-05-21T17:08:36.978Z,98343.91
2023-05-21T17:09:39.532Z,98336.84
2023-05-21T17:10:43.270Z,98349.19
2023-05-21T17:11:46.052Z,98346.53
2023-05-21T17:12:49.893Z,98340.34
2023-05-21T17:13:52.574Z,98345.63
2023-05-21T17:14:56.308Z,98345.66
2023-05-21T17:15:59.204Z,98338.63
2023-05-21T17:17:02.997Z,98343.03
2023-05-21T17:18:08.072Z,98340.38
2023-05-21T17:19:10.751Z,98337.75
2023-05-21T17:20:14.876Z,98338.66
2023-05-21T17:21:18.745Z,98337.78
2023-05-21T17:22:21.553Z,98340.38
2023-05-21T17:23:25.165Z,98338.66
2023-05-21T17:24:28.791Z,98343.03
2023-05-21T17:25:34.310Z,98343.03
2023-05-21T17:26:38.354Z,98339.56
2023-05-21T17:27:41.961Z,98342.19
2023-05-21T17:28:45.276Z,98336.00
2023-05-21T17:29:47.160Z,98337.81
2023-05-21T17:30:50.552Z,98337.78
2023-05-21T17:31:53.513Z,98343.97
2023-05-21T17:32:55.392Z,98338.69
2023-05-21T17:34:00.339Z,98339.56
2023-05-21T17:35:02.370Z,98339.53
2023-05-21T17:36:05.524Z,98341.31
2023-05-21T17:37:09.565Z,98337.78
2023-05-21T17:38:12.383Z,98342.22
2023-05-21T17:39:14.218Z,98342.19
2023-05-21T17:40:20.354Z,98342.19
2023-05-21T17:41:22.267Z,98344.78
2023-05-21T17:42:25.113Z,98346.56
2023-05-21T17:43:28.153Z,98341.25
2023-05-21T17:44:29.948Z,98348.22
2023-05-21T17:45:32.765Z,98346.41
2023-05-21T17:46:34.656Z,98353.41
2023-05-21T17:47:37.530Z,98350.78
2023-05-21T17:48:39.494Z,98349.84
2023-05-21T17:49:43.698Z,98351.53
2023-05-21T17:50:48.008Z,98359.41
2023-05-21T17:51:50.831Z,98355.88
2023-05-21T17:52:52.626Z,98356.75
2023-05-21T17:53:55.438Z,98355.00
2023-05-21T17:54:57.408Z,98357.59
2023-05-21T17:56:00.394Z,98354.94
2023-05-21T17:57:02.384Z,98357.53
2023-05-21T17:58:05.465Z,98353.09
2023-05-21T17:59:07.786Z,98358.31
2023-05-21T18:00:11.182Z,98354.72
2023-05-21T18:01:14.560Z,98359.88
2023-05-21T18:02:17.405Z,98358.94
2023-05-21T18:03:19.779Z,98353.63
2023-05-21T18:04:22.754Z,98357.97
2023-05-21T18:05:26.937Z,98354.41
2023-05-21T18:06:29.844Z,98352.59
2023-05-21T18:07:31.887Z,98349.91
2023-05-21T18:08:34.684Z,98358.59
2023-05-21T18:09:36.512Z,98349.75
2023-05-21T18:10:39.323Z,98352.19
2023-05-21T18:11:43.389Z,98353.81
2023-05-21T18:12:46.477Z,98353.75
2023-05-21T18:13:48.428Z,98350.16
2023-05-21T18:14:51.092Z,98356.13
2023-05-21T18:15:52.927Z,98346.25
2023-05-21T18:16:55.998Z,98351.25
2023-05-21T18:17:57.969Z,98362.44
2023-05-21T18:19:02.131Z,98359.66
2023-05-21T18:20:04.658Z,98361.44
2023-05-21T18:21:08.774Z,98364.88
2023-05-21T18:22:12.143Z,98359.47
2023-05-21T18:23:14.066Z,98363.84
2023-05-21T18:24:16.948Z,98362.00
2023-05-21T18:25:18.903Z,98367.16
2023-05-21T18:26:22.169Z,98369.69